sensor_id;sensor_type;location;lat;lon;timestamp;P1;durP1;ratioP1;P2;durP2;ratioP2
47860;SDS011;33620;52.340;5.984;2022-12-07T00:00:52;9.55;;;4.45;;
47860;SDS011;33620;52.340;5.984;2022-12-07T00:03:18;15.27;;;3.97;;
47860;SDS011;33620;52.340;5.984;2022-12-07T00:05:43;11.55;;;4.10;;
47860;SDS011;33620;52.340;5.984;2022-12-07T00:08:08;13.48;;;3.83;;
47860;SDS011;33620;52.340;5.984;2022-12-07T00:10:34;11.93;;;3.70;;
47860;SDS011;33620;52.340;5.984;2022-12-07T00:12:59;11.45;;;3.15;;
47860;SDS011;33620;52.340;5.984;2022-12-07T00:15:25;16.52;;;3.70;;
47860;SDS011;33620;52.340;5.984;2022-12-07T00:17:50;11.85;;;3.58;;
47860;SDS011;33620;52.340;5.984;2022-12-07T00:20:16;15.25;;;3.35;;
47860;SDS011;33620;52.340;5.984;2022-12-07T00:22:41;9.73;;;3.15;;
47860;SDS011;33620;52.340;5.984;2022-12-07T00:25:06;13.05;;;3.50;;
47860;SDS011;33620;52.340;5.984;2022-12-07T00:27:32;11.73;;;3.40;;
47860;SDS011;33620;52.340;5.984;2022-12-07T00:29:57;12.38;;;3.13;;
47860;SDS011;33620;52.340;5.984;2022-12-07T00:32:22;13.63;;;4.03;;
47860;SDS011;33620;52.340;5.984;2022-12-07T00:34:48;11.77;;;3.30;;
47860;SDS011;33620;52.340;5.984;2022-12-07T00:37:13;7.57;;;3.17;;
47860;SDS011;33620;52.340;5.984;2022-12-07T00:39:38;9.65;;;3.38;;
47860;SDS011;33620;52.340;5.984;2022-12-07T00:42:04;9.15;;;3.10;;
47860;SDS011;33620;52.340;5.984;2022-12-07T00:44:29;14.20;;;3.38;;
47860;SDS011;33620;52.340;5.984;2022-12-07T00:46:54;10.60;;;2.92;;
47860;SDS011;33620;52.340;5.984;2022-12-07T00:49:20;11.52;;;3.17;;
47860;SDS011;33620;52.340;5.984;2022-12-07T00:51:47;10.90;;;3.35;;
47860;SDS011;33620;52.340;5.984;2022-12-07T00:54:13;13.57;;;3.45;;
47860;SDS011;33620;52.340;5.984;2022-12-07T00:56:38;8.90;;;2.95;;
47860;SDS011;33620;52.340;5.984;2022-12-07T00:59:04;8.98;;;3.10;;
47860;SDS011;33620;52.340;5.984;2022-12-07T01:01:31;12.85;;;3.30;;
47860;SDS011;33620;52.340;5.984;2022-12-07T01:04:00;10.30;;;2.83;;
47860;SDS011;33620;52.340;5.984;2022-12-07T01:06:26;10.70;;;2.75;;
47860;SDS011;33620;52.340;5.984;2022-12-07T01:08:52;10.63;;;2.45;;
47860;SDS011;33620;52.340;5.984;2022-12-07T01:11:19;15.07;;;3.22;;
47860;SDS011;33620;52.340;5.984;2022-12-07T01:13:46;11.88;;;2.53;;
47860;SDS011;33620;52.340;5.984;2022-12-07T01:16:14;11.85;;;2.65;;
47860;SDS011;33620;52.340;5.984;2022-12-07T01:18:41;10.77;;;2.50;;
47860;SDS011;33620;52.340;5.984;2022-12-07T01:21:09;12.63;;;2.58;;
47860;SDS011;33620;52.340;5.984;2022-12-07T01:23:37;17.95;;;3.15;;
47860;SDS011;33620;52.340;5.984;2022-12-07T01:26:04;8.50;;;2.30;;
47860;SDS011;33620;52.340;5.984;2022-12-07T01:28:31;10.65;;;2.40;;
47860;SDS011;33620;52.340;5.984;2022-12-07T01:33:29;8.18;;;2.75;;
47860;SDS011;33620;52.340;5.984;2022-12-07T01:36:03;10.38;;;2.63;;
47860;SDS011;33620;52.340;5.984;2022-12-07T01:38:33;7.45;;;2.70;;
47860;SDS011;33620;52.340;5.984;2022-12-07T01:40:59;17.10;;;2.88;;
47860;SDS011;33620;52.340;5.984;2022-12-07T01:43:26;13.20;;;2.47;;
47860;SDS011;33620;52.340;5.984;2022-12-07T01:45:53;12.40;;;2.58;;
47860;SDS011;33620;52.340;5.984;2022-12-07T01:48:20;11.18;;;2.45;;
47860;SDS011;33620;52.340;5.984;2022-12-07T01:50:51;10.07;;;2.50;;
47860;SDS011;33620;52.340;5.984;2022-12-07T01:53:19;15.13;;;2.60;;
47860;SDS011;33620;52.340;5.984;2022-12-07T01:55:47;16.77;;;2.70;;
47860;SDS011;33620;52.340;5.984;2022-12-07T01:58:17;10.80;;;2.40;;
47860;SDS011;33620;52.340;5.984;2022-12-07T02:00:42;13.57;;;2.45;;
47860;SDS011;33620;52.340;5.984;2022-12-07T02:03:30;11.98;;;2.75;;
47860;SDS011;33620;52.340;5.984;2022-12-07T02:05:59;9.20;;;2.55;;
47860;SDS011;33620;52.340;5.984;2022-12-07T02:08:25;12.75;;;2.40;;
47860;SDS011;33620;52.340;5.984;2022-12-07T02:10:50;12.75;;;2.85;;
47860;SDS011;33620;52.340;5.984;2022-12-07T02:13:17;16.20;;;2.58;;
47860;SDS011;33620;52.340;5.984;2022-12-07T02:15:50;10.38;;;2.20;;
47860;SDS011;33620;52.340;5.984;2022-12-07T02:26:34;8.23;;;2.50;;
47860;SDS011;33620;52.340;5.984;2022-12-07T02:29:32;11.68;;;2.50;;
47860;SDS011;33620;52.340;5.984;2022-12-07T02:32:14;12.10;;;2.47;;
47860;SDS011;33620;52.340;5.984;2022-12-07T02:34:47;12.55;;;2.53;;
47860;SDS011;33620;52.340;5.984;2022-12-07T02:37:25;9.57;;;2.47;;
47860;SDS011;33620;52.340;5.984;2022-12-07T02:43:02;14.23;;;2.92;;
47860;SDS011;33620;52.340;5.984;2022-12-07T02:45:34;12.40;;;3.20;;
47860;SDS011;33620;52.340;5.984;2022-12-07T02:48:03;11.68;;;2.50;;
47860;SDS011;33620;52.340;5.984;2022-12-07T02:50:31;13.35;;;2.28;;
47860;SDS011;33620;52.340;5.984;2022-12-07T02:52:57;12.50;;;2.33;;
47860;SDS011;33620;52.340;5.984;2022-12-07T02:55:24;9.90;;;2.22;;
47860;SDS011;33620;52.340;5.984;2022-12-07T03:00:52;18.20;;;3.00;;
47860;SDS011;33620;52.340;5.984;2022-12-07T03:03:29;10.50;;;3.22;;
47860;SDS011;33620;52.340;5.984;2022-12-07T03:08:44;9.47;;;2.47;;
47860;SDS011;33620;52.340;5.984;2022-12-07T03:11:25;12.25;;;2.20;;
47860;SDS011;33620;52.340;5.984;2022-12-07T03:13:59;11.40;;;2.88;;
47860;SDS011;33620;52.340;5.984;2022-12-07T03:16:50;11.70;;;2.30;;
47860;SDS011;33620;52.340;5.984;2022-12-07T03:19:22;15.32;;;2.58;;
47860;SDS011;33620;52.340;5.984;2022-12-07T03:21:55;14.50;;;2.67;;
47860;SDS011;33620;52.340;5.984;2022-12-07T03:24:26;9.48;;;1.98;;
47860;SDS011;33620;52.340;5.984;2022-12-07T03:26:56;14.98;;;2.47;;
47860;SDS011;33620;52.340;5.984;2022-12-07T03:32:31;9.32;;;1.90;;
47860;SDS011;33620;52.340;5.984;2022-12-07T03:37:40;14.57;;;2.78;;
47860;SDS011;33620;52.340;5.984;2022-12-07T03:40:33;9.98;;;2.63;;
47860;SDS011;33620;52.340;5.984;2022-12-07T03:43:02;10.25;;;2.17;;
47860;SDS011;33620;52.340;5.984;2022-12-07T03:45:39;18.65;;;2.42;;
47860;SDS011;33620;52.340;5.984;2022-12-07T03:48:08;8.52;;;1.77;;
47860;SDS011;33620;52.340;5.984;2022-12-07T03:51:13;18.33;;;3.45;;
47860;SDS011;33620;52.340;5.984;2022-12-07T03:56:54;11.32;;;2.17;;
47860;SDS011;33620;52.340;5.984;2022-12-07T03:59:21;8.18;;;2.45;;
47860;SDS011;33620;52.340;5.984;2022-12-07T04:01:57;13.98;;;2.20;;
47860;SDS011;33620;52.340;5.984;2022-12-07T04:04:31;10.95;;;1.85;;
47860;SDS011;33620;52.340;5.984;2022-12-07T04:06:57;8.20;;;2.08;;
47860;SDS011;33620;52.340;5.984;2022-12-07T04:09:23;9.88;;;2.50;;
47860;SDS011;33620;52.340;5.984;2022-12-07T04:11:48;14.95;;;2.20;;
47860;SDS011;33620;52.340;5.984;2022-12-07T04:14:14;9.98;;;2.15;;
47860;SDS011;33620;52.340;5.984;2022-12-07T04:16:52;18.35;;;3.30;;
47860;SDS011;33620;52.340;5.984;2022-12-07T04:19:24;10.80;;;2.55;;
47860;SDS011;33620;52.340;5.984;2022-12-07T04:21:54;14.02;;;2.10;;
47860;SDS011;33620;52.340;5.984;2022-12-07T04:24:19;11.43;;;3.08;;
47860;SDS011;33620;52.340;5.984;2022-12-07T04:26:45;13.05;;;2.30;;
47860;SDS011;33620;52.340;5.984;2022-12-07T04:29:11;13.27;;;2.17;;
47860;SDS011;33620;52.340;5.984;2022-12-07T04:31:37;11.40;;;2.10;;
47860;SDS011;33620;52.340;5.984;2022-12-07T04:34:03;11.55;;;2.40;;
47860;SDS011;33620;52.340;5.984;2022-12-07T04:36:29;15.23;;;3.17;;
47860;SDS011;33620;52.340;5.984;2022-12-07T04:38:55;10.10;;;2.88;;
47860;SDS011;33620;52.340;5.984;2022-12-07T04:41:21;16.25;;;2.38;;
47860;SDS011;33620;52.340;5.984;2022-12-07T04:43:55;11.95;;;3.10;;
47860;SDS011;33620;52.340;5.984;2022-12-07T04:46:25;15.27;;;2.65;;
47860;SDS011;33620;52.340;5.984;2022-12-07T04:48:51;14.80;;;2.08;;
47860;SDS011;33620;52.340;5.984;2022-12-07T04:51:28;10.40;;;2.10;;
47860;SDS011;33620;52.340;5.984;2022-12-07T04:53:54;12.20;;;3.15;;
47860;SDS011;33620;52.340;5.984;2022-12-07T04:56:20;13.63;;;2.30;;
47860;SDS011;33620;52.340;5.984;2022-12-07T04:58:46;8.95;;;2.10;;
47860;SDS011;33620;52.340;5.984;2022-12-07T05:01:13;16.02;;;2.45;;
47860;SDS011;33620;52.340;5.984;2022-12-07T05:03:40;6.35;;;2.03;;
47860;SDS011;33620;52.340;5.984;2022-12-07T05:06:06;12.00;;;2.05;;
47860;SDS011;33620;52.340;5.984;2022-12-07T05:08:32;12.57;;;2.53;;
47860;SDS011;33620;52.340;5.984;2022-12-07T05:10:58;7.85;;;2.25;;
47860;SDS011;33620;52.340;5.984;2022-12-07T05:13:24;10.25;;;2.08;;
47860;SDS011;33620;52.340;5.984;2022-12-07T05:15:50;12.85;;;3.20;;
47860;SDS011;33620;52.340;5.984;2022-12-07T05:18:15;10.98;;;2.72;;
47860;SDS011;33620;52.340;5.984;2022-12-07T05:20:41;15.65;;;2.05;;
47860;SDS011;33620;52.340;5.984;2022-12-07T05:23:07;12.73;;;2.25;;
47860;SDS011;33620;52.340;5.984;2022-12-07T05:25:33;13.48;;;1.90;;
47860;SDS011;33620;52.340;5.984;2022-12-07T05:27:58;8.88;;;1.95;;
47860;SDS011;33620;52.340;5.984;2022-12-07T05:30:24;11.85;;;2.15;;
47860;SDS011;33620;52.340;5.984;2022-12-07T05:32:50;11.30;;;2.45;;
47860;SDS011;33620;52.340;5.984;2022-12-07T05:35:16;12.05;;;3.20;;
47860;SDS011;33620;52.340;5.984;2022-12-07T05:37:42;10.35;;;2.15;;
47860;SDS011;33620;52.340;5.984;2022-12-07T05:40:07;14.10;;;2.15;;
47860;SDS011;33620;52.340;5.984;2022-12-07T05:42:33;12.15;;;2.40;;
47860;SDS011;33620;52.340;5.984;2022-12-07T05:44:59;14.70;;;2.22;;
47860;SDS011;33620;52.340;5.984;2022-12-07T05:47:24;14.13;;;1.95;;
47860;SDS011;33620;52.340;5.984;2022-12-07T05:49:49;9.68;;;2.40;;
47860;SDS011;33620;52.340;5.984;2022-12-07T05:52:15;8.60;;;1.67;;
47860;SDS011;33620;52.340;5.984;2022-12-07T05:54:40;10.57;;;2.10;;
47860;SDS011;33620;52.340;5.984;2022-12-07T05:57:06;10.18;;;1.92;;
47860;SDS011;33620;52.340;5.984;2022-12-07T05:59:31;16.33;;;2.58;;
47860;SDS011;33620;52.340;5.984;2022-12-07T06:01:57;15.15;;;2.17;;
47860;SDS011;33620;52.340;5.984;2022-12-07T06:04:25;14.40;;;2.83;;
47860;SDS011;33620;52.340;5.984;2022-12-07T06:06:53;11.18;;;2.40;;
47860;SDS011;33620;52.340;5.984;2022-12-07T06:09:19;13.65;;;2.33;;
47860;SDS011;33620;52.340;5.984;2022-12-07T06:11:45;15.63;;;1.90;;
47860;SDS011;33620;52.340;5.984;2022-12-07T06:14:29;19.20;;;2.75;;
47860;SDS011;33620;52.340;5.984;2022-12-07T06:16:54;13.73;;;2.13;;
47860;SDS011;33620;52.340;5.984;2022-12-07T06:19:20;14.55;;;2.08;;
47860;SDS011;33620;52.340;5.984;2022-12-07T06:21:45;16.65;;;2.60;;
47860;SDS011;33620;52.340;5.984;2022-12-07T06:24:11;14.07;;;2.33;;
47860;SDS011;33620;52.340;5.984;2022-12-07T06:26:37;8.88;;;2.10;;
47860;SDS011;33620;52.340;5.984;2022-12-07T06:29:03;9.88;;;1.92;;
47860;SDS011;33620;52.340;5.984;2022-12-07T06:31:28;13.15;;;2.63;;
47860;SDS011;33620;52.340;5.984;2022-12-07T06:34:00;13.35;;;3.08;;
47860;SDS011;33620;52.340;5.984;2022-12-07T06:36:30;13.73;;;2.55;;
47860;SDS011;33620;52.340;5.984;2022-12-07T06:38:56;12.68;;;2.38;;
47860;SDS011;33620;52.340;5.984;2022-12-07T06:41:22;11.07;;;2.08;;
47860;SDS011;33620;52.340;5.984;2022-12-07T06:43:48;17.45;;;2.33;;
47860;SDS011;33620;52.340;5.984;2022-12-07T06:46:14;15.50;;;2.60;;
47860;SDS011;33620;52.340;5.984;2022-12-07T06:48:40;8.80;;;1.95;;
47860;SDS011;33620;52.340;5.984;2022-12-07T06:51:06;18.17;;;2.63;;
47860;SDS011;33620;52.340;5.984;2022-12-07T06:53:32;17.58;;;2.63;;
47860;SDS011;33620;52.340;5.984;2022-12-07T06:55:57;12.85;;;2.10;;
47860;SDS011;33620;52.340;5.984;2022-12-07T06:58:23;9.80;;;2.05;;
47860;SDS011;33620;52.340;5.984;2022-12-07T07:00:48;13.75;;;2.30;;
47860;SDS011;33620;52.340;5.984;2022-12-07T07:03:15;11.23;;;2.30;;
47860;SDS011;33620;52.340;5.984;2022-12-07T07:05:41;10.23;;;2.17;;
47860;SDS011;33620;52.340;5.984;2022-12-07T07:08:07;14.05;;;2.25;;
47860;SDS011;33620;52.340;5.984;2022-12-07T07:10:32;12.52;;;2.42;;
47860;SDS011;33620;52.340;5.984;2022-12-07T07:12:58;10.57;;;2.20;;
47860;SDS011;33620;52.340;5.984;2022-12-07T07:15:23;15.15;;;2.85;;
47860;SDS011;33620;52.340;5.984;2022-12-07T07:17:49;12.45;;;2.47;;
47860;SDS011;33620;52.340;5.984;2022-12-07T07:20:14;10.93;;;2.58;;
47860;SDS011;33620;52.340;5.984;2022-12-07T07:22:39;13.25;;;2.45;;
47860;SDS011;33620;52.340;5.984;2022-12-07T07:25:05;9.65;;;2.70;;
47860;SDS011;33620;52.340;5.984;2022-12-07T07:27:31;16.13;;;3.22;;
47860;SDS011;33620;52.340;5.984;2022-12-07T07:29:56;15.50;;;2.70;;
47860;SDS011;33620;52.340;5.984;2022-12-07T07:32:21;15.63;;;2.97;;
47860;SDS011;33620;52.340;5.984;2022-12-07T07:34:47;14.05;;;2.90;;
47860;SDS011;33620;52.340;5.984;2022-12-07T07:37:13;18.90;;;2.92;;
47860;SDS011;33620;52.340;5.984;2022-12-07T07:39:38;12.63;;;2.70;;
47860;SDS011;33620;52.340;5.984;2022-12-07T07:42:04;13.80;;;2.58;;
47860;SDS011;33620;52.340;5.984;2022-12-07T07:44:30;14.43;;;2.67;;
47860;SDS011;33620;52.340;5.984;2022-12-07T07:46:56;12.23;;;2.60;;
47860;SDS011;33620;52.340;5.984;2022-12-07T07:49:21;10.63;;;2.20;;
47860;SDS011;33620;52.340;5.984;2022-12-07T07:51:46;7.50;;;2.10;;
47860;SDS011;33620;52.340;5.984;2022-12-07T07:54:12;13.68;;;2.25;;
47860;SDS011;33620;52.340;5.984;2022-12-07T07:56:37;15.85;;;2.78;;
47860;SDS011;33620;52.340;5.984;2022-12-07T07:59:02;13.80;;;2.70;;
47860;SDS011;33620;52.340;5.984;2022-12-07T08:01:28;8.43;;;2.35;;
47860;SDS011;33620;52.340;5.984;2022-12-07T08:03:53;9.77;;;2.40;;
47860;SDS011;33620;52.340;5.984;2022-12-07T08:06:18;11.65;;;2.20;;
47860;SDS011;33620;52.340;5.984;2022-12-07T08:08:44;7.00;;;1.95;;
47860;SDS011;33620;52.340;5.984;2022-12-07T08:11:09;12.70;;;2.40;;
47860;SDS011;33620;52.340;5.984;2022-12-07T08:13:35;8.95;;;2.10;;
47860;SDS011;33620;52.340;5.984;2022-12-07T08:16:04;7.80;;;2.22;;
47860;SDS011;33620;52.340;5.984;2022-12-07T08:18:37;8.85;;;1.95;;
47860;SDS011;33620;52.340;5.984;2022-12-07T08:21:03;12.23;;;2.63;;
47860;SDS011;33620;52.340;5.984;2022-12-07T08:23:29;8.55;;;2.17;;
47860;SDS011;33620;52.340;5.984;2022-12-07T08:25:55;11.40;;;2.30;;
47860;SDS011;33620;52.340;5.984;2022-12-07T08:28:24;8.15;;;2.10;;
47860;SDS011;33620;52.340;5.984;2022-12-07T08:30:50;8.68;;;2.45;;
47860;SDS011;33620;52.340;5.984;2022-12-07T08:33:15;10.23;;;2.50;;
47860;SDS011;33620;52.340;5.984;2022-12-07T08:35:41;14.68;;;2.78;;
47860;SDS011;33620;52.340;5.984;2022-12-07T08:38:06;8.48;;;1.90;;
47860;SDS011;33620;52.340;5.984;2022-12-07T08:40:31;12.10;;;2.45;;
47860;SDS011;33620;52.340;5.984;2022-12-07T08:42:57;12.65;;;2.22;;
47860;SDS011;33620;52.340;5.984;2022-12-07T08:45:22;12.27;;;1.92;;
47860;SDS011;33620;52.340;5.984;2022-12-07T08:47:55;14.73;;;2.97;;
47860;SDS011;33620;52.340;5.984;2022-12-07T08:50:27;9.98;;;1.90;;
47860;SDS011;33620;52.340;5.984;2022-12-07T08:52:53;6.80;;;2.00;;
47860;SDS011;33620;52.340;5.984;2022-12-07T08:55:20;11.07;;;3.15;;
47860;SDS011;33620;52.340;5.984;2022-12-07T08:57:46;9.10;;;2.38;;
47860;SDS011;33620;52.340;5.984;2022-12-07T09:00:12;10.98;;;1.98;;
47860;SDS011;33620;52.340;5.984;2022-12-07T09:02:38;6.78;;;2.10;;
47860;SDS011;33620;52.340;5.984;2022-12-07T09:05:04;19.17;;;2.70;;
47860;SDS011;33620;52.340;5.984;2022-12-07T09:07:30;9.20;;;2.10;;
47860;SDS011;33620;52.340;5.984;2022-12-07T09:09:56;14.70;;;2.70;;
47860;SDS011;33620;52.340;5.984;2022-12-07T09:12:22;5.55;;;1.95;;
47860;SDS011;33620;52.340;5.984;2022-12-07T09:14:47;6.55;;;2.20;;
47860;SDS011;33620;52.340;5.984;2022-12-07T09:17:13;12.18;;;2.40;;
47860;SDS011;33620;52.340;5.984;2022-12-07T09:19:38;6.65;;;2.38;;
47860;SDS011;33620;52.340;5.984;2022-12-07T09:22:05;11.05;;;2.00;;
47860;SDS011;33620;52.340;5.984;2022-12-07T09:24:31;11.68;;;2.03;;
47860;SDS011;33620;52.340;5.984;2022-12-07T09:26:57;13.52;;;2.78;;
47860;SDS011;33620;52.340;5.984;2022-12-07T09:29:22;10.07;;;2.38;;
47860;SDS011;33620;52.340;5.984;2022-12-07T09:31:48;14.07;;;3.28;;
47860;SDS011;33620;52.340;5.984;2022-12-07T09:34:14;11.20;;;3.22;;
47860;SDS011;33620;52.340;5.984;2022-12-07T09:36:39;14.27;;;2.88;;
47860;SDS011;33620;52.340;5.984;2022-12-07T09:39:04;15.80;;;3.35;;
47860;SDS011;33620;52.340;5.984;2022-12-07T09:41:30;13.55;;;3.20;;
47860;SDS011;33620;52.340;5.984;2022-12-07T09:44:09;17.40;;;3.10;;
47860;SDS011;33620;52.340;5.984;2022-12-07T09:46:39;13.77;;;2.83;;
47860;SDS011;33620;52.340;5.984;2022-12-07T09:49:09;10.43;;;2.40;;
47860;SDS011;33620;52.340;5.984;2022-12-07T09:51:38;16.92;;;3.70;;
47860;SDS011;33620;52.340;5.984;2022-12-07T09:54:03;10.63;;;2.55;;
47860;SDS011;33620;52.340;5.984;2022-12-07T09:56:29;16.70;;;4.28;;
47860;SDS011;33620;52.340;5.984;2022-12-07T09:58:59;19.25;;;4.93;;
47860;SDS011;33620;52.340;5.984;2022-12-07T10:01:27;11.95;;;3.35;;
47860;SDS011;33620;52.340;5.984;2022-12-07T10:03:58;12.70;;;3.08;;
47860;SDS011;33620;52.340;5.984;2022-12-07T10:06:27;10.93;;;2.40;;
47860;SDS011;33620;52.340;5.984;2022-12-07T10:08:52;9.40;;;2.65;;
47860;SDS011;33620;52.340;5.984;2022-12-07T10:11:18;15.02;;;3.13;;
47860;SDS011;33620;52.340;5.984;2022-12-07T10:13:45;12.57;;;2.72;;
47860;SDS011;33620;52.340;5.984;2022-12-07T10:18:49;14.23;;;3.33;;
47860;SDS011;33620;52.340;5.984;2022-12-07T10:21:15;14.02;;;2.97;;
47860;SDS011;33620;52.340;5.984;2022-12-07T10:24:05;11.57;;;2.80;;
47860;SDS011;33620;52.340;5.984;2022-12-07T10:31:45;14.25;;;2.50;;
47860;SDS011;33620;52.340;5.984;2022-12-07T10:34:23;7.65;;;2.20;;
47860;SDS011;33620;52.340;5.984;2022-12-07T10:36:51;11.30;;;2.60;;
47860;SDS011;33620;52.340;5.984;2022-12-07T10:39:18;20.80;;;4.57;;
47860;SDS011;33620;52.340;5.984;2022-12-07T10:44:24;14.18;;;3.75;;
47860;SDS011;33620;52.340;5.984;2022-12-07T10:47:01;14.25;;;3.20;;
47860;SDS011;33620;52.340;5.984;2022-12-07T11:11:51;14.90;;;3.75;;
47860;SDS011;33620;52.340;5.984;2022-12-07T11:14:26;12.35;;;2.70;;
47860;SDS011;33620;52.340;5.984;2022-12-07T11:27:37;13.38;;;2.75;;
47860;SDS011;33620;52.340;5.984;2022-12-07T11:37:51;11.63;;;2.53;;
47860;SDS011;33620;52.340;5.984;2022-12-07T11:40:35;10.00;;;2.35;;
47860;SDS011;33620;52.340;5.984;2022-12-07T11:43:04;7.63;;;2.13;;
47860;SDS011;33620;52.340;5.984;2022-12-07T11:45:37;13.30;;;2.25;;
47860;SDS011;33620;52.340;5.984;2022-12-07T11:48:10;8.63;;;2.30;;
47860;SDS011;33620;52.340;5.984;2022-12-07T11:50:50;8.90;;;2.28;;
47860;SDS011;33620;52.340;5.984;2022-12-07T11:53:26;11.38;;;2.38;;
47860;SDS011;33620;52.340;5.984;2022-12-07T11:56:15;14.68;;;2.30;;
47860;SDS011;33620;52.340;5.984;2022-12-07T11:59:02;13.00;;;2.35;;
47860;SDS011;33620;52.340;5.984;2022-12-07T12:06:34;9.65;;;2.17;;
47860;SDS011;33620;52.340;5.984;2022-12-07T12:23:07;16.05;;;2.60;;
47860;SDS011;33620;52.340;5.984;2022-12-07T12:25:38;14.80;;;3.10;;
47860;SDS011;33620;52.340;5.984;2022-12-07T12:28:15;15.68;;;2.55;;
47860;SDS011;33620;52.340;5.984;2022-12-07T12:31:14;9.82;;;2.20;;
47860;SDS011;33620;52.340;5.984;2022-12-07T12:33:44;10.68;;;1.83;;
47860;SDS011;33620;52.340;5.984;2022-12-07T12:46:56;12.15;;;2.58;;
47860;SDS011;33620;52.340;5.984;2022-12-07T12:51:57;10.00;;;2.17;;
47860;SDS011;33620;52.340;5.984;2022-12-07T12:55:11;13.32;;;2.58;;
47860;SDS011;33620;52.340;5.984;2022-12-07T12:57:39;15.45;;;2.33;;
47860;SDS011;33620;52.340;5.984;2022-12-07T13:06:06;14.07;;;2.78;;
47860;SDS011;33620;52.340;5.984;2022-12-07T13:08:42;7.93;;;2.03;;
47860;SDS011;33620;52.340;5.984;2022-12-07T13:11:17;10.18;;;2.97;;
47860;SDS011;33620;52.340;5.984;2022-12-07T13:13:45;7.50;;;1.80;;
47860;SDS011;33620;52.340;5.984;2022-12-07T13:18:36;6.63;;;1.88;;
47860;SDS011;33620;52.340;5.984;2022-12-07T13:21:39;14.05;;;2.22;;
47860;SDS011;33620;52.340;5.984;2022-12-07T13:29:14;11.52;;;2.72;;
47860;SDS011;33620;52.340;5.984;2022-12-07T13:31:43;10.10;;;2.20;;
47860;SDS011;33620;52.340;5.984;2022-12-07T13:34:36;14.02;;;2.35;;
47860;SDS011;33620;52.340;5.984;2022-12-07T13:37:36;10.20;;;2.20;;
47860;SDS011;33620;52.340;5.984;2022-12-07T13:39:58;17.30;;;3.10;;
47860;SDS011;33620;52.340;5.984;2022-12-07T13:42:32;10.65;;;2.08;;
47860;SDS011;33620;52.340;5.984;2022-12-07T13:45:00;14.63;;;2.30;;
47860;SDS011;33620;52.340;5.984;2022-12-07T13:47:48;10.55;;;2.80;;
47860;SDS011;33620;52.340;5.984;2022-12-07T13:50:25;13.30;;;2.10;;
47860;SDS011;33620;52.340;5.984;2022-12-07T13:52:50;12.68;;;3.10;;
47860;SDS011;33620;52.340;5.984;2022-12-07T13:55:20;8.05;;;2.03;;
47860;SDS011;33620;52.340;5.984;2022-12-07T13:57:47;11.40;;;2.97;;
47860;SDS011;33620;52.340;5.984;2022-12-07T14:00:16;10.18;;;2.22;;
47860;SDS011;33620;52.340;5.984;2022-12-07T14:05:25;11.73;;;2.17;;
47860;SDS011;33620;52.340;5.984;2022-12-07T14:10:24;14.88;;;2.83;;
47860;SDS011;33620;52.340;5.984;2022-12-07T14:12:58;10.32;;;2.33;;
47860;SDS011;33620;52.340;5.984;2022-12-07T14:15:28;11.07;;;1.80;;
47860;SDS011;33620;52.340;5.984;2022-12-07T14:17:56;12.25;;;1.85;;
47860;SDS011;33620;52.340;5.984;2022-12-07T14:20:32;9.98;;;2.40;;
47860;SDS011;33620;52.340;5.984;2022-12-07T14:22:59;8.35;;;2.53;;
47860;SDS011;33620;52.340;5.984;2022-12-07T14:25:33;9.20;;;1.42;;
47860;SDS011;33620;52.340;5.984;2022-12-07T14:28:23;11.00;;;2.28;;
47860;SDS011;33620;52.340;5.984;2022-12-07T14:30:54;11.93;;;2.20;;
47860;SDS011;33620;52.340;5.984;2022-12-07T14:33:19;15.68;;;2.45;;
47860;SDS011;33620;52.340;5.984;2022-12-07T14:35:46;10.75;;;2.20;;
47860;SDS011;33620;52.340;5.984;2022-12-07T14:38:12;12.05;;;1.90;;
47860;SDS011;33620;52.340;5.984;2022-12-07T14:40:37;4.22;;;1.48;;
47860;SDS011;33620;52.340;5.984;2022-12-07T14:43:10;7.78;;;1.40;;
47860;SDS011;33620;52.340;5.984;2022-12-07T14:45:37;14.15;;;1.90;;
47860;SDS011;33620;52.340;5.984;2022-12-07T14:48:04;13.68;;;2.10;;
47860;SDS011;33620;52.340;5.984;2022-12-07T14:50:30;9.50;;;2.00;;
47860;SDS011;33620;52.340;5.984;2022-12-07T14:53:09;8.10;;;1.70;;
47860;SDS011;33620;52.340;5.984;2022-12-07T14:55:40;11.00;;;1.77;;
47860;SDS011;33620;52.340;5.984;2022-12-07T14:58:05;6.03;;;1.60;;
47860;SDS011;33620;52.340;5.984;2022-12-07T15:00:30;6.43;;;2.08;;
47860;SDS011;33620;52.340;5.984;2022-12-07T15:02:56;7.40;;;1.60;;
47860;SDS011;33620;52.340;5.984;2022-12-07T15:05:22;10.38;;;1.92;;
47860;SDS011;33620;52.340;5.984;2022-12-07T15:07:48;9.63;;;2.03;;
47860;SDS011;33620;52.340;5.984;2022-12-07T15:10:16;9.18;;;1.58;;
47860;SDS011;33620;52.340;5.984;2022-12-07T15:12:44;6.18;;;1.38;;
47860;SDS011;33620;52.340;5.984;2022-12-07T15:15:09;6.15;;;1.90;;
47860;SDS011;33620;52.340;5.984;2022-12-07T15:17:35;3.08;;;1.55;;
47860;SDS011;33620;52.340;5.984;2022-12-07T15:20:00;6.40;;;1.30;;
47860;SDS011;33620;52.340;5.984;2022-12-07T15:22:26;7.10;;;2.05;;
47860;SDS011;33620;52.340;5.984;2022-12-07T15:24:51;7.13;;;1.30;;
47860;SDS011;33620;52.340;5.984;2022-12-07T15:27:16;8.50;;;1.20;;
47860;SDS011;33620;52.340;5.984;2022-12-07T15:29:42;3.38;;;1.48;;
47860;SDS011;33620;52.340;5.984;2022-12-07T15:32:07;5.72;;;1.50;;
47860;SDS011;33620;52.340;5.984;2022-12-07T15:34:32;7.32;;;1.95;;
47860;SDS011;33620;52.340;5.984;2022-12-07T15:36:58;4.13;;;1.73;;
47860;SDS011;33620;52.340;5.984;2022-12-07T15:39:23;8.25;;;1.70;;
47860;SDS011;33620;52.340;5.984;2022-12-07T15:41:49;8.60;;;1.80;;
47860;SDS011;33620;52.340;5.984;2022-12-07T15:44:14;6.80;;;1.65;;
47860;SDS011;33620;52.340;5.984;2022-12-07T15:46:58;9.50;;;1.90;;
47860;SDS011;33620;52.340;5.984;2022-12-07T15:49:24;3.70;;;1.35;;
47860;SDS011;33620;52.340;5.984;2022-12-07T15:51:50;9.93;;;1.83;;
47860;SDS011;33620;52.340;5.984;2022-12-07T15:54:20;5.28;;;1.23;;
47860;SDS011;33620;52.340;5.984;2022-12-07T15:56:48;9.02;;;1.80;;
47860;SDS011;33620;52.340;5.984;2022-12-07T15:59:14;6.47;;;1.73;;
47860;SDS011;33620;52.340;5.984;2022-12-07T16:01:39;5.35;;;2.17;;
47860;SDS011;33620;52.340;5.984;2022-12-07T16:04:05;9.30;;;2.65;;
47860;SDS011;33620;52.340;5.984;2022-12-07T16:06:30;6.22;;;2.10;;
47860;SDS011;33620;52.340;5.984;2022-12-07T16:08:55;5.90;;;2.25;;
47860;SDS011;33620;52.340;5.984;2022-12-07T16:11:21;13.05;;;2.33;;
47860;SDS011;33620;52.340;5.984;2022-12-07T16:13:47;8.50;;;2.13;;
47860;SDS011;33620;52.340;5.984;2022-12-07T16:16:13;7.60;;;2.50;;
47860;SDS011;33620;52.340;5.984;2022-12-07T16:18:41;8.05;;;1.77;;
47860;SDS011;33620;52.340;5.984;2022-12-07T16:21:07;6.30;;;1.70;;
47860;SDS011;33620;52.340;5.984;2022-12-07T16:23:33;8.07;;;2.25;;
47860;SDS011;33620;52.340;5.984;2022-12-07T16:26:05;6.65;;;1.80;;
47860;SDS011;33620;52.340;5.984;2022-12-07T16:28:32;9.02;;;1.70;;
47860;SDS011;33620;52.340;5.984;2022-12-07T16:31:05;10.25;;;2.00;;
47860;SDS011;33620;52.340;5.984;2022-12-07T16:33:33;11.18;;;2.60;;
47860;SDS011;33620;52.340;5.984;2022-12-07T16:36:00;5.50;;;1.95;;
47860;SDS011;33620;52.340;5.984;2022-12-07T16:38:25;8.50;;;2.15;;
47860;SDS011;33620;52.340;5.984;2022-12-07T16:40:51;10.95;;;2.17;;
47860;SDS011;33620;52.340;5.984;2022-12-07T16:43:17;9.05;;;2.05;;
47860;SDS011;33620;52.340;5.984;2022-12-07T16:45:43;5.50;;;1.65;;
47860;SDS011;33620;52.340;5.984;2022-12-07T16:48:10;8.70;;;2.45;;
47860;SDS011;33620;52.340;5.984;2022-12-07T16:50:38;12.70;;;3.72;;
47860;SDS011;33620;52.340;5.984;2022-12-07T16:53:04;16.38;;;4.00;;
47860;SDS011;33620;52.340;5.984;2022-12-07T16:55:30;12.43;;;3.72;;
47860;SDS011;33620;52.340;5.984;2022-12-07T16:57:56;12.88;;;5.18;;